Airport ID:CNV8
Update Time (UTC):23/01/2019 08:57
Wind Speed (Knots):9.7291670000000003
Wind Direction (Magnetic):150
Temperature (°C):-2.5
Dew Point (°C):-2.6
Humidity (%):98.7
Altimeter (inHg):29.97
Density Altitude (Feet):
Visibility (Miles):***
Clouds (Hundreds of feet):***
Present Weather:***
METAR:METAR CNV8 230900Z AUTO 16011KT /////NDV ////// M03/M03 A2997

The data displayed is for advisory purposes only and is not to be used for flight planning or operations.

This page is not automatically refreshed. Reload the page to see current data.